Chicago, IL (60614)

1:20 AM CST on March 01, 2015 (GMT -0600)
DePaul Geography | Change Station
CLOSE
Current Station
Personal Weather Station
Location: Chicago, IL
Elevation: 650 ft
Nearby Weather Stations

Elev 650 ft 41.93 °N, 87.65 °W | Updated 4 minutes ago

Overcast
Overcast
21.0 °F
Feels Like 21 °F
N
0.0
Wind Variable Wind from West
Gusts 0.0 mph

Today
High -- | Low -- °F
--% Chance of Precip.
Yesterday
High -- | Low -- °F
Precip. -- in
6:25 AM 5:40 PM
Waxing Gibbous, 83% visible
Pressure 30.49 in
Visibility 10.0 miles
Clouds Overcast 9000 ft
Windchill 21 °F
Dew Point 19 °F
Humidity 92%
Rainfall 0.00 in
Snow Depth Not available.
UV 0 out of 12
Pollen .50 out of 12
Air Quality Not available.
Flu Activity Not available.
METAR KMDW 010653Z 17006KT 10SM -SN OVC090 M07/M09 A3043 RMK AO2 SNE27B50 SLP324 P0000 T10671094

More Conditions Fewer Conditions

Pressure 30.49 in
Visibility 10.0 miles
Clouds Overcast 9000 ft
Windchill 21 °F
Dew Point 19 °F
Humidity 92%
Rainfall 0.00 in
Snow Depth Not available.
UV 0 out of 12
Pollen .50 out of 12
Air Quality Not available.
Flu Activity Not available.
METAR KMDW 010653Z 17006KT 10SM -SN OVC090 M07/M09 A3043 RMK AO2 SNE27B50 SLP324 P0000 T10671094

More Conditions Fewer Conditions

10-Day Weather Forecast

Almanac

Astronomy

Mar. 01, 2015 Rise Set
Actual Time
Civil Twilight
Nautical Twilight
Astronomical Twilight
Moon
Length of Visible Light
Length of Day
Tomorrow will be .
, % of the Moon is Illuminated

Today's Extremes

State Highs State Lows

Community

WunderPhotos

Upload Photos

1,801,347 photos uploaded!

WunderBlogs® & News

Nearby

Air Quality

  Air Quality AQ Index Pollutant
Not available.

Snow Depth

Station Depth Elevation

Earthquake Activity

City Distance Mag. Time & Date
Minimum magnitude displayed is 2.5.

Coastal Water Temperatures

Place Temperature

Nearby Weather Stations